Time;durP1;ratioP1;P1;durP2;ratioP2;P2;SDS_P1;SDS_P2;PMS_P1;PMS_P2;Temp;Humidity;BMP_temperature;BMP_pressure;BME280_temperature;BME280_humidity;BME280_pressure;Samples;Min_cycle;Max_cycle;Signal;HPM_P1;HPM_P2
2023/05/31 00:02:13;;;;;;;6.80;5.53;;;;;;;15.91;55.97;102443.34;5026660;28;20060;-68
2023/05/31 00:04:38;;;;;;;6.15;5.55;;;;;;;15.94;56.13;102440.06;5018950;28;20037;-68
2023/05/31 00:07:05;;;;;;;6.78;5.40;;;;;;;15.91;56.37;102446.16;5022251;28;20105;-67
2023/05/31 00:09:30;;;;;;;6.18;5.35;;;;;;;15.90;56.15;102450.06;5017310;28;20021;-68
2023/05/31 00:11:55;;;;;;;6.85;5.55;;;;;;;15.86;56.51;102448.88;5030741;28;20029;-68
2023/05/31 00:14:21;;;;;;;6.35;5.65;;;;;;;15.81;56.39;102444.03;5020211;28;20037;-68
2023/05/31 00:16:46;;;;;;;8.05;5.47;;;;;;;15.77;56.73;102445.63;5011624;28;20058;-68
2023/05/31 00:19:11;;;;;;;6.50;5.90;;;;;;;15.78;56.70;102446.47;5014631;28;20083;-68
2023/05/31 00:21:37;;;;;;;6.25;5.43;;;;;;;15.77;56.71;102453.19;5020830;28;20026;-67
2023/05/31 00:24:02;;;;;;;7.53;5.57;;;;;;;15.69;56.99;102441.28;5010999;28;20049;-68
2023/05/31 00:26:27;;;;;;;6.13;5.53;;;;;;;15.69;57.05;102441.28;5010922;28;20104;-68
2023/05/31 00:28:53;;;;;;;6.35;5.75;;;;;;;15.72;57.03;102442.72;5011595;28;20924;-68
2023/05/31 00:31:19;;;;;;;7.43;5.43;;;;;;;15.70;57.03;102450.50;5012996;28;20120;-68
2023/05/31 00:33:44;;;;;;;6.45;5.70;;;;;;;15.68;57.23;102444.34;5010901;28;20036;-68
2023/05/31 00:36:10;;;;;;;6.10;5.30;;;;;;;15.64;57.22;102455.13;5018370;28;20036;-68
2023/05/31 00:38:35;;;;;;;6.95;6.00;;;;;;;15.69;57.02;102444.06;5010119;28;20065;-67
2023/05/31 00:41:00;;;;;;;5.85;5.25;;;;;;;15.61;57.27;102447.22;5018674;28;20120;-68
2023/05/31 00:43:25;;;;;;;7.07;6.00;;;;;;;15.57;57.45;102442.38;5029357;28;20531;-68
2023/05/31 00:45:51;;;;;;;7.57;5.90;;;;;;;15.55;57.70;102445.41;5031264;28;20453;-67
2023/05/31 00:48:17;;;;;;;8.55;5.32;;;;;;;15.50;57.92;102450.06;5026603;28;20044;-68
2023/05/31 00:50:43;;;;;;;6.75;5.55;;;;;;;15.56;57.70;102451.84;5026409;28;20445;-67
2023/05/31 00:53:08;;;;;;;6.47;5.75;;;;;;;15.58;57.63;102447.72;5013481;28;20029;-68
2023/05/31 00:55:35;;;;;;;6.20;5.60;;;;;;;15.54;57.65;102448.47;5027741;28;20083;-68
2023/05/31 00:58:00;;;;;;;5.85;5.25;;;;;;;15.55;57.70;102459.41;5010556;28;20026;-68
2023/05/31 01:00:27;;;;;;;6.60;6.03;;;;;;;15.55;57.96;102456.59;5010427;28;20034;-68
2023/05/31 01:02:53;;;;;;;6.78;5.68;;;;;;;15.53;57.77;102452.38;5012735;28;20033;-68
2023/05/31 01:05:18;;;;;;;6.70;5.60;;;;;;;15.51;57.99;102452.59;5020971;28;20382;-68
2023/05/31 01:07:44;;;;;;;6.63;5.53;;;;;;;15.40;58.31;102453.47;5023361;28;20030;-68
2023/05/31 01:10:10;;;;;;;6.80;5.97;;;;;;;15.42;58.53;102454.09;5019897;28;20021;-68
2023/05/31 01:12:53;;;;;;;6.43;5.70;;;;;;;15.43;58.38;102462.22;5010293;28;20038;-68
2023/05/31 01:15:32;;;;;;;6.35;5.60;;;;;;;15.37;58.46;102462.38;5024798;28;20531;-67
2023/05/31 01:18:32;;;;;;;6.07;5.45;;;;;;;15.32;58.41;102468.69;5029922;28;20057;-68
2023/05/31 01:21:01;;;;;;;8.20;5.78;;;;;;;15.25;58.93;102459.59;5014857;28;20042;-67
2023/05/31 01:23:36;;;;;;;8.27;5.78;;;;;;;15.31;58.83;102458.59;5026876;28;20036;-67
2023/05/31 01:26:05;;;;;;;6.88;6.22;;;;;;;15.33;58.96;102456.44;5031322;28;20022;-67
2023/05/31 01:28:34;;;;;;;6.97;5.70;;;;;;;15.32;59.13;102451.91;5021586;28;20612;-68
2023/05/31 01:31:04;;;;;;;6.47;5.85;;;;;;;15.30;58.98;102459.72;5011403;28;20040;-68
2023/05/31 01:33:29;;;;;;;6.18;5.57;;;;;;;15.30;58.95;102459.72;5014109;28;20022;-67
2023/05/31 01:35:55;;;;;;;7.63;6.32;;;;;;;15.28;59.17;102452.66;5035393;28;20034;-68
2023/05/31 01:38:20;;;;;;;6.97;5.50;;;;;;;15.28;58.94;102450.69;5029844;28;20034;-68
2023/05/31 01:40:45;;;;;;;6.85;5.60;;;;;;;15.25;59.10;102451.22;5013761;28;20088;-68
2023/05/31 01:43:12;;;;;;;6.35;5.68;;;;;;;15.21;59.39;102441.63;5028022;28;20083;-68
2023/05/31 01:45:38;;;;;;;7.30;6.18;;;;;;;15.19;59.65;102443.78;5020855;28;20034;-67
2023/05/31 01:48:07;;;;;;;6.50;5.70;;;;;;;15.22;59.57;102441.34;5013297;28;20112;-68
2023/05/31 01:50:36;;;;;;;7.47;5.88;;;;;;;15.15;59.80;102448.19;5012915;28;20437;-68
2023/05/31 01:53:03;;;;;;;7.10;5.85;;;;;;;15.18;59.59;102442.09;5014031;28;20445;-68
2023/05/31 01:55:28;;;;;;;7.68;5.85;;;;;;;15.12;59.81;102431.88;5014429;28;20034;-68
2023/05/31 01:57:55;;;;;;;6.35;5.68;;;;;;;15.08;60.06;102439.06;5013081;28;20048;-68
2023/05/31 02:00:22;;;;;;;7.20;6.32;;;;;;;15.14;59.87;102435.28;5013109;28;20030;-68
2023/05/31 02:02:48;;;;;;;10.10;6.25;;;;;;;15.04;60.12;102435.06;5011760;28;20481;-67
2023/05/31 02:05:13;;;;;;;6.82;5.72;;;;;;;15.06;59.96;102438.47;5013439;28;20032;-68
2023/05/31 02:07:40;;;;;;;6.97;6.03;;;;;;;14.97;60.51;102436.03;5019493;28;20400;-67
2023/05/31 02:10:06;;;;;;;9.57;6.57;;;;;;;15.04;60.13;102433.09;5031440;28;20041;-68
2023/05/31 02:12:32;;;;;;;8.20;5.88;;;;;;;15.05;60.06;102433.94;5028364;28;20030;-68
2023/05/31 02:14:57;;;;;;;7.30;6.15;;;;;;;14.99;60.49;102433.00;5033591;28;20040;-68
2023/05/31 02:17:23;;;;;;;8.18;5.78;;;;;;;14.97;60.72;102427.66;5028262;28;20038;-67
2023/05/31 02:19:52;;;;;;;7.65;6.65;;;;;;;14.97;60.80;102430.44;5026825;28;20037;-68
2023/05/31 02:22:19;;;;;;;8.20;6.47;;;;;;;14.95;60.74;102424.25;5033427;28;20022;-68
2023/05/31 02:24:45;;;;;;;8.88;5.70;;;;;;;14.92;60.97;102430.31;5032368;28;20037;-67
2023/05/31 02:27:11;;;;;;;8.05;6.32;;;;;;;14.86;61.15;102416.47;5028224;28;20144;-68
2023/05/31 02:29:36;;;;;;;7.20;6.20;;;;;;;14.82;61.01;102432.88;5014099;28;20033;-68
2023/05/31 02:32:02;;;;;;;7.43;6.40;;;;;;;14.82;60.96;102423.66;5011695;28;20038;-68
2023/05/31 02:34:27;;;;;;;7.00;6.18;;;;;;;14.80;61.39;102434.22;5022483;28;20025;-68
2023/05/31 02:36:53;;;;;;;7.45;6.75;;;;;;;14.78;61.26;102431.66;5022265;28;20128;-67
2023/05/31 02:39:18;;;;;;;7.95;6.40;;;;;;;14.81;61.32;102431.16;5015456;28;20036;-68
2023/05/31 02:41:44;;;;;;;8.60;6.18;;;;;;;14.79;61.43;102426.94;5013388;28;20032;-68
2023/05/31 02:44:09;;;;;;;9.82;6.85;;;;;;;14.81;61.32;102427.53;5025930;28;20095;-68
2023/05/31 02:46:35;;;;;;;8.73;6.68;;;;;;;14.66;61.58;102430.81;5024816;28;20674;-68
2023/05/31 02:49:00;;;;;;;9.50;7.25;;;;;;;14.68;61.71;102428.63;5030854;28;20068;-68
2023/05/31 02:51:26;;;;;;;8.65;6.40;;;;;;;14.65;61.65;102429.09;5032905;28;20025;-68
2023/05/31 02:53:51;;;;;;;8.40;7.15;;;;;;;14.62;61.70;102427.66;5023987;28;20426;-68
2023/05/31 02:56:16;;;;;;;9.77;7.10;;;;;;;14.64;61.97;102425.47;5012963;28;20025;-68
2023/05/31 02:58:42;;;;;;;8.63;7.38;;;;;;;14.65;61.57;102423.50;5017626;28;20037;-68
2023/05/31 03:01:08;;;;;;;7.65;6.68;;;;;;;14.76;61.38;102427.41;5029522;28;20044;-68
2023/05/31 03:03:33;;;;;;;8.25;7.43;;;;;;;14.68;61.54;102426.66;5012960;28;20444;-68
2023/05/31 03:05:59;;;;;;;8.80;7.38;;;;;;;14.68;61.56;102431.41;5012433;28;20044;-68
2023/05/31 03:08:24;;;;;;;9.95;7.18;;;;;;;14.56;61.99;102433.34;5014879;28;20068;-68
2023/05/31 03:10:49;;;;;;;10.45;7.78;;;;;;;14.63;61.63;102434.94;5028103;28;20083;-68
2023/05/31 03:13:15;;;;;;;8.27;7.45;;;;;;;14.60;62.29;102431.78;5027554;28;20560;-68
2023/05/31 03:15:40;;;;;;;8.48;7.40;;;;;;;14.60;62.22;102428.97;5031482;28;20445;-68
2023/05/31 03:18:05;;;;;;;9.32;7.22;;;;;;;14.55;62.44;102434.44;5032006;28;20107;-68
2023/05/31 03:20:32;;;;;;;8.30;7.07;;;;;;;14.52;62.44;102432.97;5028281;28;20038;-68
2023/05/31 03:22:58;;;;;;;8.43;7.25;;;;;;;14.42;62.74;102435.47;5024259;28;20028;-68
2023/05/31 03:25:24;;;;;;;9.30;7.85;;;;;;;14.41;62.68;102437.41;5029867;28;20029;-67
2023/05/31 03:27:50;;;;;;;9.52;7.68;;;;;;;14.39;62.91;102430.38;5012306;28;20060;-68
2023/05/31 03:30:16;;;;;;;10.20;7.45;;;;;;;14.43;62.54;102424.06;5018090;28;20041;-68
2023/05/31 03:32:41;;;;;;;9.70;7.72;;;;;;;14.40;62.79;102429.28;5011686;28;20736;-67
2023/05/31 03:35:07;;;;;;;11.25;7.97;;;;;;;14.46;62.74;102425.50;5027549;28;20487;-68
2023/05/31 03:37:32;;;;;;;9.95;7.95;;;;;;;14.51;62.39;102433.22;5026164;28;20366;-68
2023/05/31 03:39:57;;;;;;;9.38;7.20;;;;;;;14.40;62.83;102423.69;5020447;28;20029;-67
2023/05/31 03:42:22;;;;;;;8.77;7.78;;;;;;;14.35;63.13;102427.22;5009324;28;20026;-68
2023/05/31 03:44:48;;;;;;;9.18;8.05;;;;;;;14.34;63.21;102425.50;5013930;28;21929;-68
2023/05/31 03:47:13;;;;;;;10.68;8.85;;;;;;;14.37;63.04;102419.44;5011798;28;20351;-68
2023/05/31 03:49:38;;;;;;;10.77;7.72;;;;;;;14.37;62.72;102433.41;5014156;28;20036;-67
2023/05/31 03:52:04;;;;;;;11.18;8.50;;;;;;;14.33;63.21;102420.16;5013938;28;20470;-68
2023/05/31 03:54:30;;;;;;;11.70;8.73;;;;;;;14.32;63.28;102422.09;5012052;28;20056;-68
2023/05/31 03:56:55;;;;;;;11.57;8.75;;;;;;;14.37;62.93;102425.03;5011956;28;20030;-68
2023/05/31 03:59:21;;;;;;;11.35;8.30;;;;;;;14.28;63.31;102432.06;5012676;28;20029;-68
2023/05/31 04:01:46;;;;;;;10.18;8.27;;;;;;;14.28;63.68;102432.06;5010631;28;20103;-68
2023/05/31 04:04:11;;;;;;;10.10;8.48;;;;;;;14.27;63.33;102435.09;5012836;28;20038;-68
2023/05/31 04:06:37;;;;;;;13.80;8.80;;;;;;;14.31;63.11;102425.16;5009680;28;20031;-68
2023/05/31 04:09:04;;;;;;;12.07;8.68;;;;;;;14.30;63.51;102423.44;5014085;28;20029;-67
2023/05/31 04:11:29;;;;;;;11.55;9.43;;;;;;;14.30;63.61;102427.06;5010812;28;20402;-68
2023/05/31 04:13:54;;;;;;;10.48;8.18;;;;;;;14.26;63.42;102428.63;5011059;28;20125;-68
2023/05/31 04:16:20;;;;;;;11.50;9.65;;;;;;;14.25;63.57;102416.63;5012319;28;20046;-67
2023/05/31 04:18:45;;;;;;;11.32;9.00;;;;;;;14.30;63.49;102421.47;5013977;28;20431;-68
2023/05/31 04:21:10;;;;;;;11.15;9.43;;;;;;;14.27;63.50;102426.72;5012981;28;20072;-68
2023/05/31 04:23:36;;;;;;;10.52;9.40;;;;;;;14.28;63.50;102420.03;5025089;28;20493;-67
2023/05/31 04:26:02;;;;;;;11.13;8.75;;;;;;;14.33;63.64;102429.38;5013324;28;20105;-67
2023/05/31 04:28:29;;;;;;;12.40;9.65;;;;;;;14.34;63.71;102422.69;5011874;28;20034;-67
2023/05/31 04:30:56;;;;;;;13.18;9.65;;;;;;;14.30;63.87;102429.88;5010975;28;20021;-68
2023/05/31 04:33:22;;;;;;;14.90;9.98;;;;;;;14.32;63.76;102427.69;5009784;28;20037;-67
2023/05/31 04:35:48;;;;;;;13.77;10.48;;;;;;;14.34;63.94;102425.50;5027259;28;20040;-67
2023/05/31 04:38:16;;;;;;;12.95;9.85;;;;;;;14.39;63.76;102433.19;5022289;28;20017;-67
2023/05/31 04:40:42;;;;;;;11.82;10.27;;;;;;;14.38;63.85;102423.97;5019028;28;20025;-67
2023/05/31 04:43:07;;;;;;;14.13;10.88;;;;;;;14.38;63.81;102435.13;5015302;28;20025;-67
2023/05/31 04:45:33;;;;;;;15.13;10.55;;;;;;;14.40;63.81;102424.53;5013205;28;20029;-67
2023/05/31 04:47:58;;;;;;;13.95;10.48;;;;;;;14.42;64.08;102425.19;5025485;28;20515;-67
2023/05/31 04:50:24;;;;;;;15.82;10.77;;;;;;;14.44;64.12;102424.91;5016253;28;21587;-67
2023/05/31 04:52:51;;;;;;;16.13;11.18;;;;;;;14.48;64.15;102426.13;5018946;28;20049;-67
2023/05/31 04:55:16;;;;;;;13.45;11.23;;;;;;;14.54;64.10;102427.13;5010174;28;20556;-67
2023/05/31 04:57:41;;;;;;;16.58;11.40;;;;;;;14.57;63.88;102424.72;5025589;28;20030;-67
2023/05/31 05:00:12;;;;;;;15.80;12.15;;;;;;;14.55;63.98;102434.44;5013094;28;20124;-68
2023/05/31 05:02:37;;;;;;;15.23;12.43;;;;;;;14.55;64.10;102434.44;5009086;28;20037;-67
2023/05/31 05:05:04;;;;;;;17.60;12.38;;;;;;;14.56;64.21;102423.03;5015712;28;20468;-67
2023/05/31 05:07:29;;;;;;;16.92;12.15;;;;;;;14.61;63.83;102425.09;5017116;28;20043;-67
2023/05/31 05:09:55;;;;;;;16.48;12.30;;;;;;;14.65;63.71;102426.31;5019048;28;20429;-67
2023/05/31 05:12:20;;;;;;;16.95;12.10;;;;;;;14.61;64.06;102431.53;5017083;28;20433;-67
2023/05/31 05:14:45;;;;;;;18.05;12.75;;;;;;;14.63;63.82;102425.72;5026598;28;20037;-67
2023/05/31 05:17:11;;;;;;;18.30;12.40;;;;;;;14.60;64.20;102428.97;5022752;28;20041;-67
2023/05/31 05:19:36;;;;;;;15.55;12.15;;;;;;;14.70;63.96;102430.09;5009548;28;20052;-67
2023/05/31 05:22:01;;;;;;;21.45;12.65;;;;;;;14.72;63.72;102439.06;5018792;28;20546;-67
2023/05/31 05:24:27;;;;;;;14.77;12.15;;;;;;;14.82;63.79;102443.22;5014740;28;20037;-67
2023/05/31 05:26:52;;;;;;;17.85;13.48;;;;;;;14.85;63.44;102439.91;5017384;28;20033;-68
2023/05/31 05:29:17;;;;;;;18.80;13.60;;;;;;;14.77;63.91;102438.34;5027516;28;20069;-67
2023/05/31 05:31:42;;;;;;;16.90;12.98;;;;;;;14.77;63.81;102446.72;5022579;28;20092;-68
2023/05/31 05:34:09;;;;;;;19.48;12.93;;;;;;;14.83;63.84;102440.16;5018922;28;20048;-68
2023/05/31 05:36:35;;;;;;;17.27;13.30;;;;;;;14.83;63.97;102440.16;5015727;28;20126;-67
2023/05/31 05:39:04;;;;;;;17.63;13.35;;;;;;;14.82;63.90;102441.28;5004583;28;20113;-67
2023/05/31 05:41:30;;;;;;;19.25;13.40;;;;;;;14.86;63.84;102438.84;5010655;28;20029;-67
2023/05/31 05:43:55;;;;;;;17.77;14.05;;;;;;;14.94;63.79;102444.06;5029751;28;20500;-68
2023/05/31 05:46:21;;;;;;;18.95;14.52;;;;;;;14.86;63.90;102438.84;5018519;28;20034;-67
2023/05/31 05:48:46;;;;;;;17.88;14.40;;;;;;;14.81;64.31;102447.09;5016615;28;20030;-67
2023/05/31 05:51:12;;;;;;;18.98;13.85;;;;;;;14.90;64.13;102440.06;5010421;28;20466;-67
2023/05/31 05:53:37;;;;;;;18.67;14.10;;;;;;;15.02;63.95;102445.66;5011773;28;20033;-67
2023/05/31 05:56:02;;;;;;;19.83;14.93;;;;;;;15.10;63.74;102445.28;5011655;28;20088;-67
2023/05/31 05:58:27;;;;;;;16.63;14.15;;;;;;;15.20;63.32;102440.72;5017161;28;20030;-67
2023/05/31 06:00:53;;;;;;;20.30;13.88;;;;;;;15.27;63.31;102436.97;5029929;28;20116;-67
2023/05/31 06:03:19;;;;;;;19.85;14.38;;;;;;;15.36;62.85;102450.31;5017466;28;20038;-68
2023/05/31 06:05:44;;;;;;;18.50;14.38;;;;;;;15.37;62.72;102443.66;5016332;28;20121;-67
2023/05/31 06:08:10;;;;;;;19.98;14.23;;;;;;;15.40;62.76;102442.28;5020400;28;20572;-67
2023/05/31 06:10:36;;;;;;;18.60;13.88;;;;;;;15.46;62.70;102447.75;5016271;28;20047;-68
2023/05/31 06:13:02;;;;;;;18.45;14.32;;;;;;;15.60;62.28;102444.66;5016104;28;20033;-66
2023/05/31 06:15:28;;;;;;;19.20;14.93;;;;;;;15.58;62.43;102446.88;5009084;28;20033;-65
2023/05/31 06:17:53;;;;;;;17.67;13.52;;;;;;;15.64;62.12;102440.25;5007498;28;20034;-66
2023/05/31 06:20:19;;;;;;;20.48;14.95;;;;;;;15.70;62.06;102444.91;5014580;28;20088;-65
2023/05/31 06:22:44;;;;;;;17.98;13.95;;;;;;;15.76;62.07;102443.94;5019797;28;20073;-64
2023/05/31 06:25:10;;;;;;;20.88;14.73;;;;;;;15.86;61.83;102444.13;5014747;28;20108;-66
2023/05/31 06:27:35;;;;;;;20.20;15.23;;;;;;;15.90;61.59;102439.72;5013968;28;20038;-65
2023/05/31 06:30:02;;;;;;;21.55;14.73;;;;;;;15.98;61.85;102449.66;5018210;28;20111;-66
2023/05/31 06:32:28;;;;;;;14.20;11.10;;;;;;;16.11;61.01;102451.31;4998845;28;20030;-66
2023/05/31 06:34:53;;;;;;;20.92;14.50;;;;;;;16.16;61.50;102443.00;5024485;28;20116;-64
2023/05/31 06:37:20;;;;;;;20.25;13.98;;;;;;;16.22;60.95;102444.78;5017083;28;20021;-65
2023/05/31 06:39:45;;;;;;;24.85;14.88;;;;;;;16.28;60.55;102454.16;5015646;28;20393;-64
2023/05/31 06:42:11;;;;;;;16.83;14.35;;;;;;;16.32;60.67;102447.78;5016109;28;20033;-68
2023/05/31 06:44:37;;;;;;;23.48;15.32;;;;;;;16.36;60.61;102459.34;5017522;28;20611;-67
2023/05/31 06:47:02;;;;;;;20.67;14.55;;;;;;;16.34;60.34;102455.94;5025015;28;20108;-67
2023/05/31 06:49:28;;;;;;;19.45;14.88;;;;;;;16.36;60.22;102460.19;5023725;28;20037;-67
2023/05/31 06:51:53;;;;;;;20.00;14.07;;;;;;;16.44;60.07;102461.72;5015006;28;20053;-66
2023/05/31 06:54:18;;;;;;;19.98;14.32;;;;;;;16.58;60.07;102459.44;5020584;28;20484;-67
2023/05/31 06:56:43;;;;;;;21.00;14.48;;;;;;;16.62;59.85;102455.88;5014414;28;20052;-66
2023/05/31 06:59:09;;;;;;;20.58;14.25;;;;;;;16.73;59.48;102456.03;5024163;28;20029;-66
2023/05/31 07:01:35;;;;;;;20.30;14.68;;;;;;;16.80;59.30;102459.56;5018449;28;20746;-68
2023/05/31 07:04:00;;;;;;;21.75;13.57;;;;;;;16.88;58.78;102459.97;5023316;28;20029;-67
2023/05/31 07:06:25;;;;;;;18.60;13.40;;;;;;;16.99;58.81;102457.31;5014371;28;20039;-67
2023/05/31 07:08:51;;;;;;;19.58;13.88;;;;;;;17.04;58.11;102452.63;5026814;28;20091;-67
2023/05/31 07:11:17;;;;;;;19.48;14.38;;;;;;;17.05;57.60;102456.28;5016420;28;20049;-66
2023/05/31 07:13:42;;;;;;;19.48;13.88;;;;;;;17.09;58.08;102454.66;5009586;28;20026;-67
2023/05/31 07:16:07;;;;;;;18.33;13.80;;;;;;;17.12;58.16;102452.19;5011449;28;20077;-69
2023/05/31 07:18:33;;;;;;;18.60;13.88;;;;;;;17.18;57.95;102453.13;5011599;28;20021;-68
2023/05/31 07:20:58;;;;;;;20.48;14.00;;;;;;;17.24;58.00;102454.03;5018477;28;20385;-68
2023/05/31 07:23:24;;;;;;;23.35;14.40;;;;;;;17.32;57.63;102451.63;5014724;28;20022;-66
2023/05/31 07:25:50;;;;;;;20.13;14.10;;;;;;;17.34;58.26;102451.38;5010689;28;20022;-66
2023/05/31 07:28:15;;;;;;;17.48;13.10;;;;;;;17.45;57.51;102438.31;5012527;28;21013;-67
2023/05/31 07:30:40;;;;;;;19.50;12.63;;;;;;;17.51;56.47;102440.09;5012312;28;20108;-67
2023/05/31 07:33:05;;;;;;;21.70;13.48;;;;;;;17.52;56.48;102441.78;5031037;28;20021;-67
2023/05/31 07:35:31;;;;;;;16.95;13.07;;;;;;;17.58;56.65;102432.31;5018558;28;20478;-67
2023/05/31 07:37:56;;;;;;;18.50;13.35;;;;;;;17.69;56.77;102436.09;5015716;28;20420;-67
2023/05/31 07:40:21;;;;;;;20.85;13.60;;;;;;;17.77;56.64;102432.88;5025427;28;20038;-67
2023/05/31 07:42:47;;;;;;;23.88;13.60;;;;;;;17.84;56.60;102442.78;5029744;28;20022;-67
2023/05/31 07:45:12;;;;;;;18.20;13.07;;;;;;;17.92;55.85;102430.22;5026044;28;20078;-68
2023/05/31 07:47:38;;;;;;;23.70;13.10;;;;;;;17.96;55.82;102427.72;5028957;28;20509;-68
2023/05/31 07:50:03;;;;;;;18.83;12.77;;;;;;;18.03;55.54;102422.72;5024343;28;20068;-67
2023/05/31 07:52:29;;;;;;;21.20;13.43;;;;;;;18.07;55.25;102429.53;5020016;28;20033;-67
2023/05/31 07:54:54;;;;;;;17.63;12.57;;;;;;;18.12;55.60;102426.78;5010659;28;20420;-67
2023/05/31 07:57:19;;;;;;;19.65;12.63;;;;;;;18.18;55.11;102428.50;5009993;28;20037;-66
2023/05/31 07:59:45;;;;;;;18.50;13.15;;;;;;;18.23;54.99;102422.94;5010677;28;20034;-67
2023/05/31 08:02:11;;;;;;;20.17;12.48;;;;;;;18.32;55.49;102421.34;5010488;28;20026;-66
2023/05/31 08:04:36;;;;;;;17.65;11.80;;;;;;;18.44;55.45;102418.38;5011216;28;20535;-67
2023/05/31 08:07:01;;;;;;;18.52;13.43;;;;;;;18.53;54.16;102427.16;5027797;28;20100;-67
2023/05/31 08:09:27;;;;;;;21.02;13.05;;;;;;;18.52;53.82;102420.69;5022146;28;20112;-67
2023/05/31 08:11:52;;;;;;;17.25;12.10;;;;;;;18.58;53.62;102415.94;5017524;28;20067;-65
2023/05/31 08:14:18;;;;;;;20.10;12.23;;;;;;;18.65;53.61;102416.56;5015448;28;20030;-67
2023/05/31 08:16:43;;;;;;;19.55;12.00;;;;;;;18.72;53.77;102414.41;5016103;28;20489;-67
2023/05/31 08:19:08;;;;;;;21.48;12.20;;;;;;;18.78;53.21;102413.28;5010478;28;20030;-66
2023/05/31 08:21:36;;;;;;;19.40;12.90;;;;;;;18.86;53.00;102412.81;5010165;28;20591;-67
2023/05/31 08:24:08;;;;;;;14.35;11.15;;;;;;;18.98;53.86;102417.38;5009435;28;20041;-66
2023/05/31 08:26:33;;;;;;;20.90;13.57;;;;;;;18.99;53.58;102407.81;5010330;28;20553;-67
2023/05/31 08:28:59;;;;;;;19.77;12.23;;;;;;;19.06;53.10;102409.28;5011288;28;20030;-67
2023/05/31 08:31:24;;;;;;;17.80;11.40;;;;;;;19.17;52.90;102409.31;5025681;28;20072;-66
2023/05/31 08:33:54;;;;;;;18.90;11.43;;;;;;;19.29;52.70;102407.13;5009476;28;20044;-66
2023/05/31 08:36:26;;;;;;;17.17;11.55;;;;;;;19.33;51.93;102413.91;5009754;28;20474;-67
2023/05/31 08:38:52;;;;;;;19.30;11.80;;;;;;;19.35;51.82;102400.41;5011580;28;20029;-65
2023/05/31 08:41:18;;;;;;;18.10;11.77;;;;;;;19.43;51.56;102407.47;5008834;28;20100;-66
2023/05/31 08:43:45;;;;;;;18.55;10.35;;;;;;;19.48;51.08;102404.69;5013335;28;20037;-65
2023/05/31 08:46:11;;;;;;;19.02;10.90;;;;;;;19.55;51.31;102410.91;5028826;28;20033;-65
2023/05/31 08:48:49;;;;;;;9.82;6.95;;;;;;;19.70;52.48;102413.81;5025007;28;20930;-65
2023/05/31 08:51:15;;;;;;;17.90;9.88;;;;;;;19.84;51.53;102409.31;5018232;28;20030;-67
2023/05/31 08:53:42;;;;;;;16.92;11.07;;;;;;;19.86;51.39;102400.63;5011676;28;20440;-66
2023/05/31 08:56:08;;;;;;;17.80;10.18;;;;;;;19.96;51.39;102394.13;5010080;28;20026;-66
2023/05/31 08:58:35;;;;;;;12.60;8.48;;;;;;;20.07;52.08;102402.31;5021250;28;20028;-65
2023/05/31 09:01:02;;;;;;;11.68;7.22;;;;;;;20.16;51.06;102398.94;5009113;28;20033;-65
2023/05/31 09:03:28;;;;;;;9.57;6.78;;;;;;;20.26;50.44;102387.69;5013492;28;20042;-66
2023/05/31 09:05:56;;;;;;;9.88;6.47;;;;;;;20.31;49.89;102385.72;5008728;28;20022;-65
2023/05/31 09:08:21;;;;;;;19.38;10.27;;;;;;;20.31;49.67;102385.72;5009214;28;20037;-65
2023/05/31 09:10:47;;;;;;;18.35;9.00;;;;;;;20.42;50.47;102386.56;5007493;28;20038;-65
2023/05/31 09:13:13;;;;;;;14.70;7.50;;;;;;;20.58;50.57;102390.25;5008658;28;20026;-66
2023/05/31 09:15:41;;;;;;;11.38;7.22;;;;;;;20.66;49.46;102383.19;5018970;28;20029;-64
2023/05/31 09:18:18;;;;;;;15.48;9.73;;;;;;;20.63;49.47;102383.75;5021243;28;20100;-65
2023/05/31 09:20:46;;;;;;;14.73;8.48;;;;;;;20.62;47.67;102382.91;5008570;28;20026;-66
2023/05/31 09:23:12;;;;;;;16.30;8.85;;;;;;;20.70;47.67;102381.50;5009838;28;20030;-65
2023/05/31 09:25:47;;;;;;;13.98;9.77;;;;;;;20.66;47.23;102378.38;5016840;28;20593;-66
2023/05/31 09:28:13;;;;;;;14.18;8.70;;;;;;;20.69;47.22;102368.53;5011164;28;20478;-65
2023/05/31 09:30:39;;;;;;;14.40;8.60;;;;;;;20.74;47.70;102372.16;5018517;28;20029;-66
2023/05/31 09:33:04;;;;;;;15.52;8.63;;;;;;;20.83;48.44;102370.47;5029151;28;20028;-66
2023/05/31 09:35:30;;;;;;;16.17;8.45;;;;;;;20.89;47.70;102370.44;5028301;28;20041;-65
2023/05/31 09:37:56;;;;;;;18.02;8.82;;;;;;;20.93;46.85;102375.22;5028148;28;20061;-65
2023/05/31 09:40:24;;;;;;;14.82;8.10;;;;;;;20.96;46.45;102368.19;5029336;28;20109;-66
2023/05/31 09:42:50;;;;;;;12.38;7.40;;;;;;;20.97;46.72;102364.22;5015939;28;20121;-65
2023/05/31 09:45:16;;;;;;;11.90;6.93;;;;;;;21.01;46.90;102354.88;5009897;28;20129;-65
2023/05/31 09:47:41;;;;;;;10.13;7.40;;;;;;;21.06;46.86;102360.53;5008697;28;20026;-66
2023/05/31 09:50:11;;;;;;;15.60;7.20;;;;;;;21.12;45.92;102354.88;5009816;28;20362;-66
2023/05/31 09:52:40;;;;;;;9.63;6.45;;;;;;;21.18;45.73;102354.56;5027548;28;20500;-65
2023/05/31 09:55:08;;;;;;;9.13;5.85;;;;;;;21.20;45.46;102349.47;5029243;28;20068;-65
2023/05/31 09:57:41;;;;;;;12.70;7.72;;;;;;;21.23;45.73;102346.06;5013420;28;20037;-65
2023/05/31 10:00:20;;;;;;;12.65;6.70;;;;;;;21.29;45.11;102353.34;5011038;28;20570;-65
2023/05/31 10:02:47;;;;;;;11.40;7.03;;;;;;;21.30;44.92;102348.59;5018382;28;20065;-65
2023/05/31 10:05:14;;;;;;;12.27;7.00;;;;;;;21.33;44.67;102348.84;5029665;28;20507;-65
2023/05/31 10:07:45;;;;;;;11.82;6.05;;;;;;;21.40;44.71;102344.88;5028846;28;20457;-64
2023/05/31 10:10:11;;;;;;;11.30;6.15;;;;;;;21.46;44.58;102360.69;5016282;28;20052;-64
2023/05/31 10:12:58;;;;;;;11.95;6.30;;;;;;;21.48;45.17;102342.28;5012675;28;20437;-64
2023/05/31 10:15:25;;;;;;;12.45;6.45;;;;;;;21.49;43.77;102348.78;5013956;28;20473;-65
2023/05/31 10:18:01;;;;;;;9.20;5.90;;;;;;;21.59;44.70;102337.44;5008824;28;20069;-61
2023/05/31 10:20:32;;;;;;;14.60;5.85;;;;;;;21.70;43.86;102335.41;5016512;28;20124;-65
2023/05/31 10:23:01;;;;;;;13.70;6.35;;;;;;;21.76;43.30;102337.03;5023358;28;20045;-64
2023/05/31 10:26:04;;;;;;;10.65;5.75;;;;;;;21.79;43.79;102330.81;5018009;28;20039;-65
2023/05/31 10:28:36;;;;;;;10.07;5.88;;;;;;;21.87;43.64;102327.34;5014044;28;20042;-65
2023/05/31 10:31:03;;;;;;;11.48;5.80;;;;;;;21.90;42.30;102320.28;5020697;28;20091;-67
2023/05/31 10:33:30;;;;;;;11.85;5.60;;;;;;;21.93;42.62;102314.00;5018349;28;20119;-65
2023/05/31 10:35:58;;;;;;;12.13;5.45;;;;;;;21.92;41.79;102307.50;5018613;28;20109;-65
2023/05/31 10:38:30;;;;;;;9.77;4.72;;;;;;;22.04;42.12;102307.13;5014569;28;20363;-65
2023/05/31 10:41:00;;;;;;;;;;;;;;;22.05;43.33;102295.56;5017771;28;20029;-64
2023/05/31 10:43:32;;;;;;;7.78;4.40;;;;;;;22.10;41.13;102294.66;5030905;28;19956;-64
2023/05/31 10:46:04;;;;;;;9.55;4.80;;;;;;;22.12;41.40;102295.19;5029330;28;20116;-64
2023/05/31 10:48:41;;;;;;;11.27;4.25;;;;;;;22.25;41.64;102290.88;5011909;28;20030;-64
2023/05/31 10:51:06;;;;;;;11.10;4.63;;;;;;;22.27;41.06;102295.09;5012357;28;20079;-64
2023/05/31 10:53:37;;;;;;;12.30;5.20;;;;;;;22.36;41.39;102291.59;5007312;28;20017;-64
2023/05/31 10:56:09;;;;;;;11.30;5.13;;;;;;;22.43;41.00;102294.94;5032108;28;20517;-63
2023/05/31 10:58:38;;;;;;;;;;;;;;;22.43;41.89;102286.44;5031795;28;20397;-65
2023/05/31 11:01:05;;;;;;;14.75;4.30;;;;;;;22.46;39.41;102288.69;5026246;28;20000;-60
2023/05/31 11:03:34;;;;;;;7.90;4.47;;;;;;;22.40;39.30;102287.03;5015866;28;20025;-64
2023/05/31 11:06:01;;;;;;;10.13;4.80;;;;;;;22.38;40.05;102287.34;5010679;28;20117;-65
2023/05/31 11:08:27;;;;;;;7.78;4.07;;;;;;;22.42;38.96;102279.09;5014658;28;20053;-64
2023/05/31 11:11:28;;;;;;;9.35;3.90;;;;;;;22.45;40.75;102284.19;5009379;28;20040;-64
2023/05/31 11:14:08;;;;;;;11.88;3.88;;;;;;;22.57;40.99;102278.94;5010437;28;20030;-65
2023/05/31 11:16:53;;;;;;;9.02;3.70;;;;;;;22.64;41.31;102279.44;5011244;28;20115;-64